sensor_id;sensor_type;location;lat;lon;timestamp;pressure;altitude;pressure_sealevel;temperature;humidity
68994;BME280;56054;50.968;5.816;2023-01-27T05:43:34;101637.34;;;3.16;100.00
68994;BME280;56054;50.968;5.816;2023-01-27T05:46:48;101635.38;;;3.14;100.00
68994;BME280;56054;50.968;5.816;2023-01-27T05:49:55;101642.94;;;3.12;100.00
68994;BME280;56054;50.968;5.816;2023-01-27T05:53:02;101640.94;;;3.10;100.00
68994;BME280;56054;50.968;5.816;2023-01-27T05:56:11;101640.78;;;3.08;100.00
68994;BME280;56054;50.968;5.816;2023-01-27T05:59:18;101636.94;;;3.05;100.00
68994;BME280;56054;50.968;5.816;2023-01-27T06:02:25;101642.44;;;3.08;100.00
68994;BME280;56054;50.968;5.816;2023-01-27T06:05:32;101635.13;;;3.04;100.00
68994;BME280;56054;50.968;5.816;2023-01-27T06:08:39;101639.59;;;2.97;100.00
68994;BME280;56054;50.968;5.816;2023-01-27T06:11:46;101636.31;;;2.98;100.00
68994;BME280;56054;50.968;5.816;2023-01-27T06:14:53;101647.31;;;2.97;100.00
68994;BME280;56054;50.968;5.816;2023-01-27T06:18:00;101649.47;;;3.02;100.00
68994;BME280;56054;50.968;5.816;2023-01-27T06:21:09;101644.59;;;2.96;100.00
68994;BME280;56054;50.968;5.816;2023-01-27T06:24:17;101652.88;;;2.93;100.00
68994;BME280;56054;50.968;5.816;2023-01-27T06:27:24;101653.59;;;2.92;100.00
68994;BME280;56054;50.968;5.816;2023-01-27T06:30:35;101655.34;;;3.00;100.00
68994;BME280;56054;50.968;5.816;2023-01-27T06:33:42;101660.72;;;2.95;100.00
68994;BME280;56054;50.968;5.816;2023-01-27T06:36:52;101657.69;;;2.90;100.00
68994;BME280;56054;50.968;5.816;2023-01-27T06:39:59;101653.59;;;2.92;100.00
68994;BME280;56054;50.968;5.816;2023-01-27T06:43:11;101660.97;;;2.89;100.00
68994;BME280;56054;50.968;5.816;2023-01-27T06:46:18;101664.63;;;2.91;100.00
68994;BME280;56054;50.968;5.816;2023-01-27T06:49:25;101656.59;;;2.88;100.00
68994;BME280;56054;50.968;5.816;2023-01-27T06:52:32;101659.50;;;2.91;100.00
68994;BME280;56054;50.968;5.816;2023-01-27T06:55:39;101667.97;;;2.90;100.00
68994;BME280;56054;50.968;5.816;2023-01-27T06:58:46;101674.41;;;2.87;100.00
68994;BME280;56054;50.968;5.816;2023-01-27T07:01:53;101675.16;;;2.86;100.00
68994;BME280;56054;50.968;5.816;2023-01-27T07:05:00;101684.25;;;2.91;100.00
68994;BME280;56054;50.968;5.816;2023-01-27T07:08:07;101686.31;;;2.86;100.00
68994;BME280;56054;50.968;5.816;2023-01-27T07:11:14;101671.81;;;2.87;100.00
68994;BME280;56054;50.968;5.816;2023-01-27T07:14:21;101680.44;;;2.87;100.00
68994;BME280;56054;50.968;5.816;2023-01-27T07:17:28;101684.50;;;2.85;100.00
68994;BME280;56054;50.968;5.816;2023-01-27T07:20:35;101688.13;;;2.87;100.00
68994;BME280;56054;50.968;5.816;2023-01-27T07:23:42;101695.69;;;2.86;100.00
68994;BME280;56054;50.968;5.816;2023-01-27T07:26:49;101695.44;;;2.91;100.00
68994;BME280;56054;50.968;5.816;2023-01-27T07:29:56;101688.56;;;2.83;100.00
68994;BME280;56054;50.968;5.816;2023-01-27T07:33:07;101686.31;;;2.86;100.00
68994;BME280;56054;50.968;5.816;2023-01-27T07:36:14;101691.13;;;2.83;100.00
68994;BME280;56054;50.968;5.816;2023-01-27T07:39:21;101688.72;;;2.85;100.00
68994;BME280;56054;50.968;5.816;2023-01-27T07:42:28;101694.94;;;2.87;100.00
68994;BME280;56054;50.968;5.816;2023-01-27T07:45:35;101691.06;;;2.90;100.00
68994;BME280;56054;50.968;5.816;2023-01-27T07:48:42;101686.16;;;2.85;100.00
68994;BME280;56054;50.968;5.816;2023-01-27T07:51:49;101689.63;;;2.85;100.00
68994;BME280;56054;50.968;5.816;2023-01-27T07:54:56;101696.91;;;2.89;100.00
68994;BME280;56054;50.968;5.816;2023-01-27T07:58:03;101696.34;;;2.92;100.00
68994;BME280;56054;50.968;5.816;2023-01-27T08:01:11;101689.41;;;2.91;100.00
68994;BME280;56054;50.968;5.816;2023-01-27T08:04:18;101698.75;;;2.90;100.00
68994;BME280;56054;50.968;5.816;2023-01-27T08:07:25;101699.22;;;2.95;100.00
68994;BME280;56054;50.968;5.816;2023-01-27T08:10:32;101706.59;;;2.92;100.00
68994;BME280;56054;50.968;5.816;2023-01-27T08:13:39;101706.47;;;2.90;100.00
68994;BME280;56054;50.968;5.816;2023-01-27T08:16:47;101715.41;;;2.94;100.00
68994;BME280;56054;50.968;5.816;2023-01-27T08:19:54;101721.75;;;2.97;100.00
68994;BME280;56054;50.968;5.816;2023-01-27T08:23:01;101713.72;;;2.94;100.00
68994;BME280;56054;50.968;5.816;2023-01-27T08:26:08;101704.88;;;2.99;100.00
68994;BME280;56054;50.968;5.816;2023-01-27T08:29:15;101707.94;;;3.04;100.00
68994;BME280;56054;50.968;5.816;2023-01-27T08:32:22;101708.69;;;3.03;100.00
68994;BME280;56054;50.968;5.816;2023-01-27T08:35:29;101707.78;;;3.03;100.00
68994;BME280;56054;50.968;5.816;2023-01-27T08:38:36;101709.78;;;3.05;100.00
68994;BME280;56054;50.968;5.816;2023-01-27T08:41:43;101700.41;;;3.06;100.00
68994;BME280;56054;50.968;5.816;2023-01-27T08:44:50;101706.38;;;3.13;100.00
68994;BME280;56054;50.968;5.816;2023-01-27T08:47:57;101703.22;;;3.16;100.00
68994;BME280;56054;50.968;5.816;2023-01-27T08:51:09;101705.47;;;3.13;100.00
68994;BME280;56054;50.968;5.816;2023-01-27T08:54:16;101714.97;;;3.14;100.00
68994;BME280;56054;50.968;5.816;2023-01-27T08:57:23;101712.00;;;3.18;100.00
68994;BME280;56054;50.968;5.816;2023-01-27T09:00:30;101713.09;;;3.20;100.00
68994;BME280;56054;50.968;5.816;2023-01-27T09:03:37;101724.09;;;3.19;100.00
68994;BME280;56054;50.968;5.816;2023-01-27T09:06:44;101722.59;;;3.21;100.00
68994;BME280;56054;50.968;5.816;2023-01-27T09:09:51;101723.69;;;3.23;100.00
68994;BME280;56054;50.968;5.816;2023-01-27T09:12:58;101732.47;;;3.25;100.00
68994;BME280;56054;50.968;5.816;2023-01-27T09:16:05;101723.50;;;3.21;100.00
68994;BME280;56054;50.968;5.816;2023-01-27T09:19:15;101732.06;;;3.29;100.00
68994;BME280;56054;50.968;5.816;2023-01-27T09:22:22;101725.41;;;3.31;100.00
68994;BME280;56054;50.968;5.816;2023-01-27T09:25:36;101736.78;;;3.33;100.00
68994;BME280;56054;50.968;5.816;2023-01-27T09:28:51;101741.19;;;3.34;100.00
68994;BME280;56054;50.968;5.816;2023-01-27T09:32:04;101742.22;;;3.36;100.00
68994;BME280;56054;50.968;5.816;2023-01-27T09:35:12;101749.03;;;3.36;100.00
68994;BME280;56054;50.968;5.816;2023-01-27T09:38:28;101741.19;;;3.34;100.00
68994;BME280;56054;50.968;5.816;2023-01-27T10:06:33;101767.25;;;3.46;100.00
68994;BME280;56054;50.968;5.816;2023-01-27T10:13:43;101770.31;;;3.51;100.00
68994;BME280;56054;50.968;5.816;2023-01-27T10:27:31;101763.28;;;3.57;100.00
68994;BME280;56054;50.968;5.816;2023-01-27T10:31:33;101764.38;;;3.59;100.00
68994;BME280;56054;50.968;5.816;2023-01-27T10:42:30;101757.47;;;3.67;100.00
68994;BME280;56054;50.968;5.816;2023-01-27T10:50:12;101753.56;;;3.70;100.00
68994;BME280;56054;50.968;5.816;2023-01-27T10:54:04;101745.84;;;3.70;100.00
68994;BME280;56054;50.968;5.816;2023-01-27T11:01:03;101747.25;;;3.75;100.00
68994;BME280;56054;50.968;5.816;2023-01-27T11:04:20;101737.72;;;3.74;100.00
68994;BME280;56054;50.968;5.816;2023-01-27T11:07:51;101751.97;;;3.79;100.00
68994;BME280;56054;50.968;5.816;2023-01-27T11:11:01;101745.94;;;3.79;100.00
68994;BME280;56054;50.968;5.816;2023-01-27T11:21:36;101730.09;;;3.83;100.00
68994;BME280;56054;50.968;5.816;2023-01-27T11:35:40;101727.44;;;3.99;100.00
68994;BME280;56054;50.968;5.816;2023-01-27T11:38:47;101725.06;;;4.00;100.00
68994;BME280;56054;50.968;5.816;2023-01-27T11:41:54;101722.97;;;4.05;100.00
68994;BME280;56054;50.968;5.816;2023-01-27T11:45:02;101736.56;;;4.04;100.00
68994;BME280;56054;50.968;5.816;2023-01-27T11:48:19;101729.16;;;4.07;100.00
68994;BME280;56054;50.968;5.816;2023-01-27T11:51:35;101729.59;;;4.03;100.00
68994;BME280;56054;50.968;5.816;2023-01-27T11:59:05;101732.06;;;4.10;100.00
68994;BME280;56054;50.968;5.816;2023-01-27T12:02:29;101732.06;;;4.10;100.00
68994;BME280;56054;50.968;5.816;2023-01-27T12:44:42;101707.56;;;4.14;100.00
68994;BME280;56054;50.968;5.816;2023-01-27T12:51:22;101703.66;;;4.17;100.00
68994;BME280;56054;50.968;5.816;2023-01-27T13:28:30;101692.00;;;4.12;100.00
68994;BME280;56054;50.968;5.816;2023-01-27T13:35:03;101698.63;;;4.10;100.00
68994;BME280;56054;50.968;5.816;2023-01-27T13:38:24;101707.25;;;4.11;100.00
68994;BME280;56054;50.968;5.816;2023-01-27T13:48:53;101716.63;;;4.10;100.00
68994;BME280;56054;50.968;5.816;2023-01-27T13:52:00;101718.88;;;4.07;100.00
68994;BME280;56054;50.968;5.816;2023-01-27T14:03:09;101727.34;;;4.06;100.00
68994;BME280;56054;50.968;5.816;2023-01-27T14:13:25;101731.91;;;4.08;100.00
68994;BME280;56054;50.968;5.816;2023-01-27T14:17:03;101730.81;;;4.06;100.00
68994;BME280;56054;50.968;5.816;2023-01-27T14:20:26;101732.50;;;4.06;100.00
68994;BME280;56054;50.968;5.816;2023-01-27T14:38:55;101743.25;;;4.11;100.00
68994;BME280;56054;50.968;5.816;2023-01-27T14:46:09;101751.47;;;4.15;100.00
68994;BME280;56054;50.968;5.816;2023-01-27T15:00:56;101751.41;;;4.06;100.00
68994;BME280;56054;50.968;5.816;2023-01-27T15:04:31;101762.94;;;4.10;100.00
68994;BME280;56054;50.968;5.816;2023-01-27T15:08:29;101765.03;;;4.05;100.00
68994;BME280;56054;50.968;5.816;2023-01-27T15:23:00;101776.97;;;4.05;100.00
68994;BME280;56054;50.968;5.816;2023-01-27T15:30:29;101775.03;;;4.11;100.00
68994;BME280;56054;50.968;5.816;2023-01-27T15:40:16;101785.91;;;4.08;100.00
68994;BME280;56054;50.968;5.816;2023-01-27T15:43:23;101793.31;;;4.05;100.00
68994;BME280;56054;50.968;5.816;2023-01-27T15:46:36;101797.56;;;4.05;100.00
68994;BME280;56054;50.968;5.816;2023-01-27T15:50:02;101794.97;;;4.05;100.00
68994;BME280;56054;50.968;5.816;2023-01-27T15:53:16;101802.53;;;4.03;100.00
68994;BME280;56054;50.968;5.816;2023-01-27T16:30:25;101827.94;;;4.00;100.00
68994;BME280;56054;50.968;5.816;2023-01-27T16:33:38;101833.38;;;4.03;100.00
68994;BME280;56054;50.968;5.816;2023-01-27T16:36:59;101840.34;;;4.04;100.00
68994;BME280;56054;50.968;5.816;2023-01-27T16:40:14;101841.09;;;4.03;100.00
68994;BME280;56054;50.968;5.816;2023-01-27T16:43:30;101847.56;;;4.00;100.00
68994;BME280;56054;50.968;5.816;2023-01-27T16:49:53;101856.34;;;4.02;100.00
68994;BME280;56054;50.968;5.816;2023-01-27T16:53:02;101861.94;;;3.98;100.00
68994;BME280;56054;50.968;5.816;2023-01-27T17:00:47;101851.31;;;3.95;100.00
68994;BME280;56054;50.968;5.816;2023-01-27T17:03:57;101867.50;;;3.94;100.00
68994;BME280;56054;50.968;5.816;2023-01-27T17:07:09;101856.44;;;3.95;100.00
68994;BME280;56054;50.968;5.816;2023-01-27T17:10:16;101863.84;;;3.92;100.00
68994;BME280;56054;50.968;5.816;2023-01-27T17:13:33;101870.47;;;3.90;100.00
68994;BME280;56054;50.968;5.816;2023-01-27T17:16:43;101871.06;;;3.87;100.00
68994;BME280;56054;50.968;5.816;2023-01-27T17:19:57;101875.63;;;3.90;100.00
68994;BME280;56054;50.968;5.816;2023-01-27T17:23:19;101875.63;;;3.90;100.00
68994;BME280;56054;50.968;5.816;2023-01-27T18:01:14;101903.22;;;3.68;100.00
68994;BME280;56054;50.968;5.816;2023-01-27T18:04:22;101903.41;;;3.69;100.00
68994;BME280;56054;50.968;5.816;2023-01-27T18:07:34;101907.66;;;3.69;100.00
68994;BME280;56054;50.968;5.816;2023-01-27T18:10:42;101909.13;;;3.82;100.00
68994;BME280;56054;50.968;5.816;2023-01-27T18:13:52;101915.28;;;3.76;100.00
68994;BME280;56054;50.968;5.816;2023-01-27T18:17:21;101913.19;;;3.64;100.00
68994;BME280;56054;50.968;5.816;2023-01-27T18:20:41;101913.38;;;3.66;100.00
68994;BME280;56054;50.968;5.816;2023-01-27T18:35:31;101911.28;;;3.55;100.00
68994;BME280;56054;50.968;5.816;2023-01-27T18:38:45;101906.69;;;3.52;100.00
68994;BME280;56054;50.968;5.816;2023-01-27T18:41:52;101917.50;;;3.57;100.00
68994;BME280;56054;50.968;5.816;2023-01-27T18:45:01;101914.94;;;3.57;100.00
68994;BME280;56054;50.968;5.816;2023-01-27T18:48:15;101916.97;;;3.52;100.00
68994;BME280;56054;50.968;5.816;2023-01-27T18:51:22;101918.22;;;3.56;100.00
68994;BME280;56054;50.968;5.816;2023-01-27T19:30:39;101940.94;;;3.44;100.00
68994;BME280;56054;50.968;5.816;2023-01-27T19:33:46;101930.41;;;3.50;100.00
68994;BME280;56054;50.968;5.816;2023-01-27T19:36:53;101939.28;;;3.45;100.00
68994;BME280;56054;50.968;5.816;2023-01-27T19:40:00;101940.50;;;3.48;100.00
68994;BME280;56054;50.968;5.816;2023-01-27T19:43:27;101944.56;;;3.46;100.00
68994;BME280;56054;50.968;5.816;2023-01-27T19:46:35;101939.59;;;3.48;100.00
68994;BME280;56054;50.968;5.816;2023-01-27T19:50:02;101952.25;;;3.46;100.00
68994;BME280;56054;50.968;5.816;2023-01-27T20:02:02;101947.38;;;3.40;100.00
68994;BME280;56054;50.968;5.816;2023-01-27T20:05:31;101956.75;;;3.40;100.00
68994;BME280;56054;50.968;5.816;2023-01-27T20:08:44;101954.69;;;3.45;100.00
68994;BME280;56054;50.968;5.816;2023-01-27T20:11:52;101967.94;;;3.40;100.00
68994;BME280;56054;50.968;5.816;2023-01-27T20:15:34;101959.13;;;3.38;100.00
68994;BME280;56054;50.968;5.816;2023-01-27T20:18:45;101971.84;;;3.37;100.00
68994;BME280;56054;50.968;5.816;2023-01-27T20:21:52;101972.88;;;3.39;100.00
68994;BME280;56054;50.968;5.816;2023-01-27T20:29:24;101974.97;;;3.34;100.00
68994;BME280;56054;50.968;5.816;2023-01-27T20:32:31;101978.59;;;3.36;100.00
68994;BME280;56054;50.968;5.816;2023-01-27T20:35:38;101969.06;;;3.35;100.00
68994;BME280;56054;50.968;5.816;2023-01-27T20:39:11;101969.78;;;3.41;100.00
68994;BME280;56054;50.968;5.816;2023-01-27T20:42:18;101972.56;;;3.36;100.00
68994;BME280;56054;50.968;5.816;2023-01-27T20:45:25;101967.59;;;3.37;100.00
68994;BME280;56054;50.968;5.816;2023-01-27T20:48:32;101969.06;;;3.35;100.00
68994;BME280;56054;50.968;5.816;2023-01-27T20:51:39;101975.69;;;3.33;100.00
68994;BME280;56054;50.968;5.816;2023-01-27T20:54:56;101966.50;;;3.35;100.00
68994;BME280;56054;50.968;5.816;2023-01-27T20:58:16;101966.50;;;3.35;100.00
68994;BME280;56054;50.968;5.816;2023-01-27T21:10:23;101988.97;;;3.29;100.00
68994;BME280;56054;50.968;5.816;2023-01-27T21:16:58;101985.63;;;3.30;100.00
68994;BME280;56054;50.968;5.816;2023-01-27T21:23:21;101986.72;;;3.32;100.00
68994;BME280;56054;50.968;5.816;2023-01-27T21:29:57;101991.28;;;3.35;100.00
68994;BME280;56054;50.968;5.816;2023-01-27T21:33:06;101980.50;;;3.30;100.00
68994;BME280;56054;50.968;5.816;2023-01-27T21:36:33;101976.84;;;3.28;100.00
68994;BME280;56054;50.968;5.816;2023-01-27T21:39:40;101973.19;;;3.26;100.00
68994;BME280;56054;50.968;5.816;2023-01-27T21:43:16;101973.56;;;3.29;100.00
68994;BME280;56054;50.968;5.816;2023-01-27T21:46:30;101969.88;;;3.27;100.00
68994;BME280;56054;50.968;5.816;2023-01-27T21:50:11;101977.75;;;3.29;100.00
68994;BME280;56054;50.968;5.816;2023-01-27T21:57:30;101965.91;;;3.22;100.00
68994;BME280;56054;50.968;5.816;2023-01-27T22:00:48;101956.91;;;3.18;100.00
68994;BME280;56054;50.968;5.816;2023-01-27T22:04:21;101965.53;;;3.19;100.00
68994;BME280;56054;50.968;5.816;2023-01-27T22:07:28;101966.09;;;3.16;100.00
68994;BME280;56054;50.968;5.816;2023-01-27T22:11:07;101969.75;;;3.18;100.00
68994;BME280;56054;50.968;5.816;2023-01-27T22:14:14;101960.06;;;3.16;100.00
68994;BME280;56054;50.968;5.816;2023-01-27T22:17:27;101967.00;;;3.17;100.00
68994;BME280;56054;50.968;5.816;2023-01-27T22:20:35;101969.44;;;3.15;100.00
68994;BME280;56054;50.968;5.816;2023-01-27T22:32:11;101971.66;;;3.12;100.00
68994;BME280;56054;50.968;5.816;2023-01-27T22:44:25;101971.13;;;3.08;100.00
68994;BME280;56054;50.968;5.816;2023-01-27T22:47:58;101962.69;;;3.09;100.00
68994;BME280;56054;50.968;5.816;2023-01-27T22:51:05;101962.69;;;3.09;100.00
68994;BME280;56054;50.968;5.816;2023-01-27T22:54:17;101962.34;;;3.06;100.00
